Vremea acum in Buhuși - Romania

Vrei sa afli care e starea vremii acum in Bacau - Romania? Dorim sa iti furnizam starea vremii pentru Bacau - Romania. Starea vremii Bacau - Romania pentru astazi.

Vremea acum in Buhuși

Temperatura: 10 °C

Este: Senin
Se simte ca: 9.9 °C
Innorat: 0 %
Precipitatii: 0 %
Presiune atmosferica: 1015 hPa
Umiditate: 71%
Vizibilitate: 10 km
Vantul bate din SSW cu 4.7 km/h

Evolutia vremii in Buhuși pe ore

Ora: 04:00
Senin
Temperatura: 10.9°C
Sansa de precipitatii: 0%
Ora Descriere Temp Se simte Precipitatii Umiditate Vant
00:0013.6°13.3°0%61%S 7.2 KM/H
01:0011.9°11.5°0%67%S 6.8 KM/H
02:00Senin12°11.7°0%66%S 6.5 KM/H
03:00Senin10°11°0%71%SSW 4.7 KM/H
04:00Senin10.9°10.9°0%70%WSW 2.9 KM/H
05:00Senin11.3°11.3°0%68%SSW 2.2 KM/H
06:00Senin10.1°10.6°0%73%SSW 3.2 KM/H
07:00Senin10.9°10.9°0%74%SSW 4.7 KM/H
08:00Senin14.9°15.5°0%67%S 4.3 KM/H
09:00Senin15.8°15.8°0%66%SSE 6.8 KM/H
10:00Senin17.8°17.9°0%60%S 7.6 KM/H
11:00Senin19.9°19.9°0%54%SSE 7.2 KM/H
12:00Senin21.4°21.4°0%48%SSE 6.8 KM/H
13:00Senin22.6°24.3°0%42%SSE 5.8 KM/H
14:00Senin23.5°24.4°0%38%SE 6.1 KM/H
15:00Senin23.6°24.3°0%36%SE 7.9 KM/H
16:00Senin23.6°24.4°0%35%SE 8.6 KM/H
17:00Senin23.4°24.3°0%36%SE 8.6 KM/H
18:00Senin23°24.4°0%41%SSE 9.7 KM/H
19:00Senin20.3°20.3°0%55%SSE 12.2 KM/H
20:00Senin15.5°15.5°0%65%S 13 KM/H
21:00Senin13.8°12.9°0%65%S 11.9 KM/H
22:00Senin13°12.3°0%68%S 9.4 KM/H
23:00Senin12.3°11.6°0%72%S 8.6 KM/H




tutorials